sensor_id;sensor_type;location;lat;lon;timestamp;P1;durP1;ratioP1;P2;durP2;ratioP2
23001;SDS011;11667;51.706;4.856;2023-07-13T00:01:32;5.12;;;1.37;;
23001;SDS011;11667;51.706;4.856;2023-07-13T00:04:02;2.40;;;1.37;;
23001;SDS011;11667;51.706;4.856;2023-07-13T00:06:31;2.87;;;1.50;;
23001;SDS011;11667;51.706;4.856;2023-07-13T00:09:02;6.47;;;1.70;;
23001;SDS011;11667;51.706;4.856;2023-07-13T00:11:32;4.50;;;1.30;;
23001;SDS011;11667;51.706;4.856;2023-07-13T00:14:01;5.20;;;1.45;;
23001;SDS011;11667;51.706;4.856;2023-07-13T00:16:31;5.45;;;1.77;;
23001;SDS011;11667;51.706;4.856;2023-07-13T00:19:01;4.05;;;1.57;;
23001;SDS011;11667;51.706;4.856;2023-07-13T00:21:31;7.20;;;1.65;;
23001;SDS011;11667;51.706;4.856;2023-07-13T00:24:01;5.10;;;1.50;;
23001;SDS011;11667;51.706;4.856;2023-07-13T00:26:31;5.42;;;1.65;;
23001;SDS011;11667;51.706;4.856;2023-07-13T00:29:02;5.42;;;1.70;;
23001;SDS011;11667;51.706;4.856;2023-07-13T00:31:32;4.17;;;1.70;;
23001;SDS011;11667;51.706;4.856;2023-07-13T00:34:01;6.60;;;1.98;;
23001;SDS011;11667;51.706;4.856;2023-07-13T00:36:31;7.62;;;1.90;;
23001;SDS011;11667;51.706;4.856;2023-07-13T00:39:01;5.00;;;1.50;;
23001;SDS011;11667;51.706;4.856;2023-07-13T00:41:31;6.95;;;2.00;;
23001;SDS011;11667;51.706;4.856;2023-07-13T00:44:03;4.95;;;1.70;;
23001;SDS011;11667;51.706;4.856;2023-07-13T00:46:33;3.22;;;1.80;;
23001;SDS011;11667;51.706;4.856;2023-07-13T00:49:04;6.37;;;2.02;;
23001;SDS011;11667;51.706;4.856;2023-07-13T00:51:36;6.10;;;1.72;;
23001;SDS011;11667;51.706;4.856;2023-07-13T00:54:07;4.78;;;1.95;;
23001;SDS011;11667;51.706;4.856;2023-07-13T00:56:39;7.55;;;1.82;;
23001;SDS011;11667;51.706;4.856;2023-07-13T01:01:45;5.55;;;2.20;;
23001;SDS011;11667;51.706;4.856;2023-07-13T01:04:15;7.80;;;2.10;;
23001;SDS011;11667;51.706;4.856;2023-07-13T01:06:45;7.00;;;2.00;;
23001;SDS011;11667;51.706;4.856;2023-07-13T01:09:15;7.45;;;2.15;;
23001;SDS011;11667;51.706;4.856;2023-07-13T01:11:45;4.28;;;1.60;;
23001;SDS011;11667;51.706;4.856;2023-07-13T01:14:15;5.25;;;2.17;;
23001;SDS011;11667;51.706;4.856;2023-07-13T01:16:45;8.65;;;2.00;;
23001;SDS011;11667;51.706;4.856;2023-07-13T01:22:06;6.37;;;2.12;;
23001;SDS011;11667;51.706;4.856;2023-07-13T01:24:40;11.05;;;2.00;;
23001;SDS011;11667;51.706;4.856;2023-07-13T01:27:12;6.15;;;1.90;;
23001;SDS011;11667;51.706;4.856;2023-07-13T01:29:44;5.33;;;2.37;;
23001;SDS011;11667;51.706;4.856;2023-07-13T01:32:16;9.38;;;2.08;;
23001;SDS011;11667;51.706;4.856;2023-07-13T01:34:54;7.87;;;1.98;;
23001;SDS011;11667;51.706;4.856;2023-07-13T01:37:24;7.12;;;1.95;;
23001;SDS011;11667;51.706;4.856;2023-07-13T01:39:54;8.00;;;2.20;;
23001;SDS011;11667;51.706;4.856;2023-07-13T01:42:24;4.97;;;2.00;;
23001;SDS011;11667;51.706;4.856;2023-07-13T01:44:53;9.13;;;2.20;;
23001;SDS011;11667;51.706;4.856;2023-07-13T01:47:22;7.90;;;2.02;;
23001;SDS011;11667;51.706;4.856;2023-07-13T01:52:25;7.47;;;2.17;;
23001;SDS011;11667;51.706;4.856;2023-07-13T01:54:54;7.33;;;2.30;;
23001;SDS011;11667;51.706;4.856;2023-07-13T01:57:23;10.25;;;2.90;;
23001;SDS011;11667;51.706;4.856;2023-07-13T01:59:53;8.08;;;2.72;;
23001;SDS011;11667;51.706;4.856;2023-07-13T02:02:22;9.03;;;2.60;;
23001;SDS011;11667;51.706;4.856;2023-07-13T02:04:52;7.80;;;2.45;;
23001;SDS011;11667;51.706;4.856;2023-07-13T02:07:22;5.22;;;2.12;;
23001;SDS011;11667;51.706;4.856;2023-07-13T02:09:51;9.38;;;2.45;;
23001;SDS011;11667;51.706;4.856;2023-07-13T02:12:21;7.75;;;2.40;;
23001;SDS011;11667;51.706;4.856;2023-07-13T02:14:50;5.55;;;2.37;;
23001;SDS011;11667;51.706;4.856;2023-07-13T02:17:20;8.18;;;2.52;;
23001;SDS011;11667;51.706;4.856;2023-07-13T02:19:50;9.75;;;2.70;;
23001;SDS011;11667;51.706;4.856;2023-07-13T02:22:19;5.17;;;2.35;;
23001;SDS011;11667;51.706;4.856;2023-07-13T02:24:49;9.90;;;3.05;;
23001;SDS011;11667;51.706;4.856;2023-07-13T02:27:19;7.00;;;2.70;;
23001;SDS011;11667;51.706;4.856;2023-07-13T02:29:49;9.05;;;2.90;;
23001;SDS011;11667;51.706;4.856;2023-07-13T02:32:22;9.43;;;2.72;;
23001;SDS011;11667;51.706;4.856;2023-07-13T02:34:53;8.73;;;2.70;;
23001;SDS011;11667;51.706;4.856;2023-07-13T02:37:22;8.28;;;2.90;;
23001;SDS011;11667;51.706;4.856;2023-07-13T02:39:52;12.45;;;3.33;;
23001;SDS011;11667;51.706;4.856;2023-07-13T02:42:22;8.20;;;3.02;;
23001;SDS011;11667;51.706;4.856;2023-07-13T02:44:52;9.48;;;3.20;;
23001;SDS011;11667;51.706;4.856;2023-07-13T02:47:21;8.15;;;2.90;;
23001;SDS011;11667;51.706;4.856;2023-07-13T02:49:52;10.40;;;3.10;;
23001;SDS011;11667;51.706;4.856;2023-07-13T02:52:21;9.73;;;3.33;;
23001;SDS011;11667;51.706;4.856;2023-07-13T02:54:51;10.78;;;3.10;;
23001;SDS011;11667;51.706;4.856;2023-07-13T02:57:20;10.50;;;3.42;;
23001;SDS011;11667;51.706;4.856;2023-07-13T02:59:50;12.60;;;3.25;;
23001;SDS011;11667;51.706;4.856;2023-07-13T03:02:20;23.38;;;4.00;;
23001;SDS011;11667;51.706;4.856;2023-07-13T03:04:49;10.68;;;3.70;;
23001;SDS011;11667;51.706;4.856;2023-07-13T03:07:19;9.95;;;3.37;;
23001;SDS011;11667;51.706;4.856;2023-07-13T03:09:53;10.75;;;4.08;;
23001;SDS011;11667;51.706;4.856;2023-07-13T03:12:25;10.13;;;3.58;;
23001;SDS011;11667;51.706;4.856;2023-07-13T03:14:55;9.78;;;3.60;;
23001;SDS011;11667;51.706;4.856;2023-07-13T03:17:27;10.70;;;3.80;;
23001;SDS011;11667;51.706;4.856;2023-07-13T03:19:57;13.55;;;4.17;;
23001;SDS011;11667;51.706;4.856;2023-07-13T03:22:26;12.18;;;4.05;;
23001;SDS011;11667;51.706;4.856;2023-07-13T03:24:56;14.63;;;3.72;;
23001;SDS011;11667;51.706;4.856;2023-07-13T03:27:25;16.50;;;4.83;;
23001;SDS011;11667;51.706;4.856;2023-07-13T03:29:55;12.10;;;3.72;;
23001;SDS011;11667;51.706;4.856;2023-07-13T03:32:24;13.98;;;4.22;;
23001;SDS011;11667;51.706;4.856;2023-07-13T03:34:54;14.33;;;3.83;;
23001;SDS011;11667;51.706;4.856;2023-07-13T03:37:23;14.93;;;4.45;;
23001;SDS011;11667;51.706;4.856;2023-07-13T03:39:52;11.93;;;4.53;;
23001;SDS011;11667;51.706;4.856;2023-07-13T03:42:22;13.83;;;4.50;;
23001;SDS011;11667;51.706;4.856;2023-07-13T03:44:51;12.45;;;4.30;;
23001;SDS011;11667;51.706;4.856;2023-07-13T03:47:22;16.80;;;5.25;;
23001;SDS011;11667;51.706;4.856;2023-07-13T03:49:51;19.00;;;6.10;;
23001;SDS011;11667;51.706;4.856;2023-07-13T03:52:21;15.72;;;5.40;;
23001;SDS011;11667;51.706;4.856;2023-07-13T03:54:51;13.93;;;4.75;;
23001;SDS011;11667;51.706;4.856;2023-07-13T03:57:21;15.23;;;5.08;;
23001;SDS011;11667;51.706;4.856;2023-07-13T03:59:50;13.50;;;4.92;;
23001;SDS011;11667;51.706;4.856;2023-07-13T04:02:20;15.00;;;5.05;;
23001;SDS011;11667;51.706;4.856;2023-07-13T04:04:50;12.90;;;4.97;;
23001;SDS011;11667;51.706;4.856;2023-07-13T04:07:21;14.70;;;4.92;;
23001;SDS011;11667;51.706;4.856;2023-07-13T04:09:51;15.43;;;5.00;;
23001;SDS011;11667;51.706;4.856;2023-07-13T04:12:20;19.90;;;5.60;;
23001;SDS011;11667;51.706;4.856;2023-07-13T04:14:50;17.45;;;5.95;;
23001;SDS011;11667;51.706;4.856;2023-07-13T04:17:19;18.20;;;5.35;;
23001;SDS011;11667;51.706;4.856;2023-07-13T04:19:49;15.40;;;5.20;;
23001;SDS011;11667;51.706;4.856;2023-07-13T04:22:18;17.05;;;5.97;;
23001;SDS011;11667;51.706;4.856;2023-07-13T04:24:48;15.03;;;5.25;;
23001;SDS011;11667;51.706;4.856;2023-07-13T04:27:17;13.62;;;5.45;;
23001;SDS011;11667;51.706;4.856;2023-07-13T04:29:46;16.37;;;5.28;;
23001;SDS011;11667;51.706;4.856;2023-07-13T04:32:16;14.93;;;5.70;;
23001;SDS011;11667;51.706;4.856;2023-07-13T04:34:45;17.05;;;5.75;;
23001;SDS011;11667;51.706;4.856;2023-07-13T04:37:14;18.98;;;6.28;;
23001;SDS011;11667;51.706;4.856;2023-07-13T04:39:44;16.00;;;5.80;;
23001;SDS011;11667;51.706;4.856;2023-07-13T04:42:13;18.32;;;5.80;;
23001;SDS011;11667;51.706;4.856;2023-07-13T04:44:47;15.38;;;5.80;;
23001;SDS011;11667;51.706;4.856;2023-07-13T04:47:17;18.55;;;6.28;;
23001;SDS011;11667;51.706;4.856;2023-07-13T04:49:47;14.65;;;6.12;;
23001;SDS011;11667;51.706;4.856;2023-07-13T04:52:16;16.10;;;5.67;;
23001;SDS011;11667;51.706;4.856;2023-07-13T04:54:45;17.75;;;5.95;;
23001;SDS011;11667;51.706;4.856;2023-07-13T04:57:15;17.70;;;6.58;;
23001;SDS011;11667;51.706;4.856;2023-07-13T04:59:44;17.05;;;6.28;;
23001;SDS011;11667;51.706;4.856;2023-07-13T05:02:14;19.23;;;6.35;;
23001;SDS011;11667;51.706;4.856;2023-07-13T05:04:48;19.07;;;6.78;;
23001;SDS011;11667;51.706;4.856;2023-07-13T05:07:17;16.00;;;5.83;;
23001;SDS011;11667;51.706;4.856;2023-07-13T05:09:47;18.85;;;6.45;;
23001;SDS011;11667;51.706;4.856;2023-07-13T05:12:16;15.88;;;6.15;;
23001;SDS011;11667;51.706;4.856;2023-07-13T05:14:46;17.20;;;6.90;;
23001;SDS011;11667;51.706;4.856;2023-07-13T05:17:16;19.82;;;7.03;;
23001;SDS011;11667;51.706;4.856;2023-07-13T05:19:46;23.05;;;7.03;;
23001;SDS011;11667;51.706;4.856;2023-07-13T05:22:15;15.75;;;6.70;;
23001;SDS011;11667;51.706;4.856;2023-07-13T05:24:44;18.35;;;7.25;;
23001;SDS011;11667;51.706;4.856;2023-07-13T05:27:14;21.20;;;8.15;;
23001;SDS011;11667;51.706;4.856;2023-07-13T05:29:43;24.15;;;8.08;;
23001;SDS011;11667;51.706;4.856;2023-07-13T05:32:13;23.05;;;8.90;;
23001;SDS011;11667;51.706;4.856;2023-07-13T05:34:42;20.70;;;8.15;;
23001;SDS011;11667;51.706;4.856;2023-07-13T05:37:12;25.55;;;9.70;;
23001;SDS011;11667;51.706;4.856;2023-07-13T05:39:41;26.20;;;9.35;;
23001;SDS011;11667;51.706;4.856;2023-07-13T05:42:11;24.30;;;10.32;;
23001;SDS011;11667;51.706;4.856;2023-07-13T05:44:40;23.12;;;9.93;;
23001;SDS011;11667;51.706;4.856;2023-07-13T05:47:09;27.13;;;9.80;;
23001;SDS011;11667;51.706;4.856;2023-07-13T05:49:39;24.63;;;9.73;;
23001;SDS011;11667;51.706;4.856;2023-07-13T05:52:09;20.48;;;9.20;;
23001;SDS011;11667;51.706;4.856;2023-07-13T05:54:38;25.60;;;9.48;;
23001;SDS011;11667;51.706;4.856;2023-07-13T05:57:07;20.70;;;9.63;;
23001;SDS011;11667;51.706;4.856;2023-07-13T05:59:37;17.57;;;9.48;;
23001;SDS011;11667;51.706;4.856;2023-07-13T06:02:08;19.40;;;9.63;;
23001;SDS011;11667;51.706;4.856;2023-07-13T06:04:38;24.92;;;9.88;;
23001;SDS011;11667;51.706;4.856;2023-07-13T06:07:07;23.55;;;10.88;;
23001;SDS011;11667;51.706;4.856;2023-07-13T06:09:37;21.87;;;10.50;;
23001;SDS011;11667;51.706;4.856;2023-07-13T06:12:07;21.20;;;10.58;;
23001;SDS011;11667;51.706;4.856;2023-07-13T06:14:36;19.87;;;10.28;;
23001;SDS011;11667;51.706;4.856;2023-07-13T06:17:07;23.57;;;10.50;;
23001;SDS011;11667;51.706;4.856;2023-07-13T06:19:36;22.05;;;10.65;;
23001;SDS011;11667;51.706;4.856;2023-07-13T06:22:14;24.77;;;9.90;;
23001;SDS011;11667;51.706;4.856;2023-07-13T06:24:43;28.75;;;10.40;;
23001;SDS011;11667;51.706;4.856;2023-07-13T06:27:12;20.95;;;9.93;;
23001;SDS011;11667;51.706;4.856;2023-07-13T06:29:42;23.20;;;10.72;;
23001;SDS011;11667;51.706;4.856;2023-07-13T06:32:12;20.50;;;9.78;;
23001;SDS011;11667;51.706;4.856;2023-07-13T06:34:43;19.87;;;9.18;;
23001;SDS011;11667;51.706;4.856;2023-07-13T06:37:12;19.00;;;8.63;;
23001;SDS011;11667;51.706;4.856;2023-07-13T06:39:41;20.05;;;9.00;;
23001;SDS011;11667;51.706;4.856;2023-07-13T06:42:11;15.28;;;8.30;;
23001;SDS011;11667;51.706;4.856;2023-07-13T06:44:51;16.75;;;8.38;;
23001;SDS011;11667;51.706;4.856;2023-07-13T06:47:20;13.38;;;7.05;;
23001;SDS011;11667;51.706;4.856;2023-07-13T06:49:49;19.62;;;7.72;;
23001;SDS011;11667;51.706;4.856;2023-07-13T06:52:19;16.20;;;6.83;;
23001;SDS011;11667;51.706;4.856;2023-07-13T06:54:48;14.30;;;6.87;;
23001;SDS011;11667;51.706;4.856;2023-07-13T06:57:17;16.65;;;6.45;;
23001;SDS011;11667;51.706;4.856;2023-07-13T06:59:47;12.20;;;6.33;;
23001;SDS011;11667;51.706;4.856;2023-07-13T07:02:16;16.50;;;6.20;;
23001;SDS011;11667;51.706;4.856;2023-07-13T07:04:46;10.48;;;5.90;;
23001;SDS011;11667;51.706;4.856;2023-07-13T07:07:15;12.85;;;6.12;;
23001;SDS011;11667;51.706;4.856;2023-07-13T07:09:44;12.35;;;5.62;;
23001;SDS011;11667;51.706;4.856;2023-07-13T07:12:14;14.15;;;5.83;;
23001;SDS011;11667;51.706;4.856;2023-07-13T07:14:43;13.88;;;5.60;;
23001;SDS011;11667;51.706;4.856;2023-07-13T07:17:13;12.25;;;6.05;;
23001;SDS011;11667;51.706;4.856;2023-07-13T07:19:42;11.18;;;5.28;;
23001;SDS011;11667;51.706;4.856;2023-07-13T07:22:11;11.33;;;5.08;;
23001;SDS011;11667;51.706;4.856;2023-07-13T07:24:41;12.88;;;5.20;;
23001;SDS011;11667;51.706;4.856;2023-07-13T07:27:10;13.83;;;5.50;;
23001;SDS011;11667;51.706;4.856;2023-07-13T07:29:41;9.15;;;5.05;;
23001;SDS011;11667;51.706;4.856;2023-07-13T07:32:12;9.85;;;5.50;;
23001;SDS011;11667;51.706;4.856;2023-07-13T07:34:43;9.73;;;4.50;;
23001;SDS011;11667;51.706;4.856;2023-07-13T07:37:13;14.93;;;5.70;;
23001;SDS011;11667;51.706;4.856;2023-07-13T07:39:44;10.72;;;4.47;;
23001;SDS011;11667;51.706;4.856;2023-07-13T07:42:16;10.18;;;4.35;;
23001;SDS011;11667;51.706;4.856;2023-07-13T07:44:45;10.43;;;4.58;;
23001;SDS011;11667;51.706;4.856;2023-07-13T07:47:14;14.87;;;5.05;;
23001;SDS011;11667;51.706;4.856;2023-07-13T07:49:44;10.13;;;4.92;;
23001;SDS011;11667;51.706;4.856;2023-07-13T07:52:13;8.73;;;4.30;;
23001;SDS011;11667;51.706;4.856;2023-07-13T07:54:42;7.05;;;3.98;;
23001;SDS011;11667;51.706;4.856;2023-07-13T07:57:14;11.80;;;3.95;;
23001;SDS011;11667;51.706;4.856;2023-07-13T07:59:45;12.40;;;4.87;;
23001;SDS011;11667;51.706;4.856;2023-07-13T08:02:16;8.93;;;4.47;;
23001;SDS011;11667;51.706;4.856;2023-07-13T08:04:47;14.10;;;3.95;;
23001;SDS011;11667;51.706;4.856;2023-07-13T08:07:18;10.53;;;3.58;;
23001;SDS011;11667;51.706;4.856;2023-07-13T08:09:47;9.28;;;4.40;;
23001;SDS011;11667;51.706;4.856;2023-07-13T08:12:18;10.30;;;3.75;;
23001;SDS011;11667;51.706;4.856;2023-07-13T08:14:49;10.32;;;4.05;;
23001;SDS011;11667;51.706;4.856;2023-07-13T08:17:24;8.60;;;3.60;;
23001;SDS011;11667;51.706;4.856;2023-07-13T08:19:53;10.82;;;4.20;;
23001;SDS011;11667;51.706;4.856;2023-07-13T08:22:23;8.58;;;3.67;;
23001;SDS011;11667;51.706;4.856;2023-07-13T08:24:52;10.28;;;3.62;;
23001;SDS011;11667;51.706;4.856;2023-07-13T08:27:25;10.00;;;3.55;;
23001;SDS011;11667;51.706;4.856;2023-07-13T08:29:55;10.13;;;3.85;;
23001;SDS011;11667;51.706;4.856;2023-07-13T08:32:25;8.93;;;3.67;;
23001;SDS011;11667;51.706;4.856;2023-07-13T08:34:54;10.43;;;3.70;;
23001;SDS011;11667;51.706;4.856;2023-07-13T08:37:24;9.28;;;3.65;;
23001;SDS011;11667;51.706;4.856;2023-07-13T08:39:53;8.33;;;3.22;;
23001;SDS011;11667;51.706;4.856;2023-07-13T08:42:28;7.60;;;3.87;;
23001;SDS011;11667;51.706;4.856;2023-07-13T08:48:27;5.95;;;3.55;;
23001;SDS011;11667;51.706;4.856;2023-07-13T08:50:33;8.28;;;3.47;;
23001;SDS011;11667;51.706;4.856;2023-07-13T08:53:06;6.87;;;3.20;;
23001;SDS011;11667;51.706;4.856;2023-07-13T08:55:36;11.15;;;4.10;;
23001;SDS011;11667;51.706;4.856;2023-07-13T08:58:16;7.53;;;3.35;;
23001;SDS011;11667;51.706;4.856;2023-07-13T09:03:37;5.50;;;3.20;;
23001;SDS011;11667;51.706;4.856;2023-07-13T09:06:06;8.93;;;3.10;;
23001;SDS011;11667;51.706;4.856;2023-07-13T09:08:41;7.80;;;3.62;;
23001;SDS011;11667;51.706;4.856;2023-07-13T09:11:26;9.35;;;3.33;;
23001;SDS011;11667;51.706;4.856;2023-07-13T09:16:30;7.55;;;3.00;;
23001;SDS011;11667;51.706;4.856;2023-07-13T09:19:02;8.35;;;2.90;;
23001;SDS011;11667;51.706;4.856;2023-07-13T09:21:34;6.40;;;3.17;;
23001;SDS011;11667;51.706;4.856;2023-07-13T09:27:17;7.25;;;3.60;;
23001;SDS011;11667;51.706;4.856;2023-07-13T09:29:49;6.20;;;3.45;;
23001;SDS011;11667;51.706;4.856;2023-07-13T09:32:18;6.83;;;2.98;;
23001;SDS011;11667;51.706;4.856;2023-07-13T09:38:14;6.60;;;2.90;;
23001;SDS011;11667;51.706;4.856;2023-07-13T09:43:13;4.72;;;2.67;;
23001;SDS011;11667;51.706;4.856;2023-07-13T09:45:45;6.25;;;2.92;;
23001;SDS011;11667;51.706;4.856;2023-07-13T09:48:16;8.15;;;2.65;;
23001;SDS011;11667;51.706;4.856;2023-07-13T09:50:46;4.15;;;2.30;;
23001;SDS011;11667;51.706;4.856;2023-07-13T09:53:16;7.42;;;2.70;;
23001;SDS011;11667;51.706;4.856;2023-07-13T09:55:47;10.30;;;3.17;;
23001;SDS011;11667;51.706;4.856;2023-07-13T09:58:27;6.97;;;3.10;;
23001;SDS011;11667;51.706;4.856;2023-07-13T10:00:56;8.20;;;3.08;;
23001;SDS011;11667;51.706;4.856;2023-07-13T10:03:33;5.75;;;2.67;;
23001;SDS011;11667;51.706;4.856;2023-07-13T10:06:14;6.50;;;2.50;;
23001;SDS011;11667;51.706;4.856;2023-07-13T10:08:46;6.37;;;2.83;;
23001;SDS011;11667;51.706;4.856;2023-07-13T10:11:28;5.30;;;1.95;;
23001;SDS011;11667;51.706;4.856;2023-07-13T10:14:01;12.70;;;2.40;;
23001;SDS011;11667;51.706;4.856;2023-07-13T10:16:33;5.90;;;2.30;;
23001;SDS011;11667;51.706;4.856;2023-07-13T10:19:05;4.72;;;1.87;;
23001;SDS011;11667;51.706;4.856;2023-07-13T10:21:47;5.03;;;2.20;;
23001;SDS011;11667;51.706;4.856;2023-07-13T10:24:25;6.45;;;2.25;;
23001;SDS011;11667;51.706;4.856;2023-07-13T10:27:09;5.58;;;2.20;;
23001;SDS011;11667;51.706;4.856;2023-07-13T10:29:47;3.30;;;2.10;;
23001;SDS011;11667;51.706;4.856;2023-07-13T10:32:19;5.47;;;2.58;;
23001;SDS011;11667;51.706;4.856;2023-07-13T10:34:51;4.87;;;2.25;;
23001;SDS011;11667;51.706;4.856;2023-07-13T10:37:23;6.42;;;2.42;;
23001;SDS011;11667;51.706;4.856;2023-07-13T10:42:27;6.08;;;2.27;;
23001;SDS011;11667;51.706;4.856;2023-07-13T10:44:56;4.58;;;2.00;;
23001;SDS011;11667;51.706;4.856;2023-07-13T10:47:26;4.62;;;1.90;;
23001;SDS011;11667;51.706;4.856;2023-07-13T10:49:56;3.95;;;1.80;;
23001;SDS011;11667;51.706;4.856;2023-07-13T10:52:44;4.40;;;1.47;;
23001;SDS011;11667;51.706;4.856;2023-07-13T10:55:35;3.85;;;1.60;;
23001;SDS011;11667;51.706;4.856;2023-07-13T10:58:15;4.90;;;1.62;;
23001;SDS011;11667;51.706;4.856;2023-07-13T11:09:31;4.10;;;1.80;;
23001;SDS011;11667;51.706;4.856;2023-07-13T11:12:09;3.55;;;1.60;;
23001;SDS011;11667;51.706;4.856;2023-07-13T11:14:44;5.00;;;1.60;;
23001;SDS011;11667;51.706;4.856;2023-07-13T11:17:46;3.90;;;1.60;;
23001;SDS011;11667;51.706;4.856;2023-07-13T11:20:20;3.37;;;1.50;;
23001;SDS011;11667;51.706;4.856;2023-07-13T11:22:53;2.15;;;1.40;;
23001;SDS011;11667;51.706;4.856;2023-07-13T11:30:48;2.58;;;1.27;;
23001;SDS011;11667;51.706;4.856;2023-07-13T11:33:22;1.98;;;1.30;;
23001;SDS011;11667;51.706;4.856;2023-07-13T11:35:59;2.20;;;1.20;;
23001;SDS011;11667;51.706;4.856;2023-07-13T11:41:34;2.30;;;1.50;;
23001;SDS011;11667;51.706;4.856;2023-07-13T11:44:07;3.20;;;1.30;;
23001;SDS011;11667;51.706;4.856;2023-07-13T11:47:25;2.00;;;1.30;;
23001;SDS011;11667;51.706;4.856;2023-07-13T11:49:21;2.75;;;1.20;;
23001;SDS011;11667;51.706;4.856;2023-07-13T11:51:52;2.77;;;1.30;;
23001;SDS011;11667;51.706;4.856;2023-07-13T11:54:30;2.87;;;1.30;;
23001;SDS011;11667;51.706;4.856;2023-07-13T11:57:07;3.20;;;1.50;;
23001;SDS011;11667;51.706;4.856;2023-07-13T11:59:44;2.52;;;1.50;;
23001;SDS011;11667;51.706;4.856;2023-07-13T12:02:18;3.52;;;1.50;;
23001;SDS011;11667;51.706;4.856;2023-07-13T12:04:51;3.62;;;1.40;;
23001;SDS011;11667;51.706;4.856;2023-07-13T12:07:20;2.67;;;1.10;;
23001;SDS011;11667;51.706;4.856;2023-07-13T12:09:50;4.35;;;1.37;;
23001;SDS011;11667;51.706;4.856;2023-07-13T12:12:21;2.10;;;1.22;;
23001;SDS011;11667;51.706;4.856;2023-07-13T12:14:51;1.82;;;1.22;;
23001;SDS011;11667;51.706;4.856;2023-07-13T12:17:23;2.10;;;1.10;;
23001;SDS011;11667;51.706;4.856;2023-07-13T12:19:54;2.22;;;1.30;;
23001;SDS011;11667;51.706;4.856;2023-07-13T12:22:23;2.33;;;1.25;;
23001;SDS011;11667;51.706;4.856;2023-07-13T12:24:52;3.47;;;1.27;;
23001;SDS011;11667;51.706;4.856;2023-07-13T12:27:24;2.65;;;1.30;;
23001;SDS011;11667;51.706;4.856;2023-07-13T12:32:27;2.05;;;1.30;;
23001;SDS011;11667;51.706;4.856;2023-07-13T12:35:12;3.22;;;1.30;;
23001;SDS011;11667;51.706;4.856;2023-07-13T12:37:36;3.65;;;1.30;;
23001;SDS011;11667;51.706;4.856;2023-07-13T12:40:12;2.35;;;1.20;;
23001;SDS011;11667;51.706;4.856;2023-07-13T12:42:48;2.85;;;1.10;;
23001;SDS011;11667;51.706;4.856;2023-07-13T12:45:22;2.15;;;1.20;;
23001;SDS011;11667;51.706;4.856;2023-07-13T12:48:03;1.98;;;1.30;;
23001;SDS011;11667;51.706;4.856;2023-07-13T12:53:20;2.62;;;1.10;;
23001;SDS011;11667;51.706;4.856;2023-07-13T12:55:53;1.67;;;1.05;;
23001;SDS011;11667;51.706;4.856;2023-07-13T12:58:41;3.50;;;1.47;;
23001;SDS011;11667;51.706;4.856;2023-07-13T13:01:12;3.25;;;1.27;;
23001;SDS011;11667;51.706;4.856;2023-07-13T13:03:46;2.70;;;1.17;;
23001;SDS011;11667;51.706;4.856;2023-07-13T13:08:59;3.12;;;1.25;;
23001;SDS011;11667;51.706;4.856;2023-07-13T13:11:26;3.42;;;1.47;;
23001;SDS011;11667;51.706;4.856;2023-07-13T13:13:57;3.90;;;1.47;;
23001;SDS011;11667;51.706;4.856;2023-07-13T13:19:12;5.33;;;1.95;;
23001;SDS011;11667;51.706;4.856;2023-07-13T13:24:26;5.67;;;2.02;;
23001;SDS011;11667;51.706;4.856;2023-07-13T13:26:56;3.98;;;2.10;;
23001;SDS011;11667;51.706;4.856;2023-07-13T13:29:26;4.10;;;2.02;;
23001;SDS011;11667;51.706;4.856;2023-07-13T13:35:17;5.72;;;1.92;;
23001;SDS011;11667;51.706;4.856;2023-07-13T13:37:47;5.20;;;1.62;;
23001;SDS011;11667;51.706;4.856;2023-07-13T13:40:18;5.05;;;1.85;;
23001;SDS011;11667;51.706;4.856;2023-07-13T13:42:51;5.08;;;1.92;;
23001;SDS011;11667;51.706;4.856;2023-07-13T13:45:22;5.03;;;2.40;;
23001;SDS011;11667;51.706;4.856;2023-07-13T13:47:52;5.40;;;2.55;;
23001;SDS011;11667;51.706;4.856;2023-07-13T13:50:21;6.37;;;2.00;;
23001;SDS011;11667;51.706;4.856;2023-07-13T13:52:52;5.53;;;1.85;;
23001;SDS011;11667;51.706;4.856;2023-07-13T13:55:21;5.17;;;1.45;;
23001;SDS011;11667;51.706;4.856;2023-07-13T13:57:51;3.60;;;1.80;;
23001;SDS011;11667;51.706;4.856;2023-07-13T14:00:21;3.95;;;2.00;;
23001;SDS011;11667;51.706;4.856;2023-07-13T14:02:52;5.83;;;1.95;;
23001;SDS011;11667;51.706;4.856;2023-07-13T14:05:24;4.70;;;2.17;;
23001;SDS011;11667;51.706;4.856;2023-07-13T14:07:54;3.87;;;1.70;;
23001;SDS011;11667;51.706;4.856;2023-07-13T14:10:24;3.65;;;1.60;;
23001;SDS011;11667;51.706;4.856;2023-07-13T14:12:55;3.27;;;1.60;;
23001;SDS011;11667;51.706;4.856;2023-07-13T14:15:34;3.33;;;1.80;;
23001;SDS011;11667;51.706;4.856;2023-07-13T14:18:07;4.87;;;1.60;;
23001;SDS011;11667;51.706;4.856;2023-07-13T14:20:37;3.45;;;1.50;;
23001;SDS011;11667;51.706;4.856;2023-07-13T14:23:08;4.28;;;1.50;;
23001;SDS011;11667;51.706;4.856;2023-07-13T14:25:37;4.47;;;1.60;;
23001;SDS011;11667;51.706;4.856;2023-07-13T14:28:26;2.75;;;1.37;;
23001;SDS011;11667;51.706;4.856;2023-07-13T14:30:56;3.12;;;1.35;;
23001;SDS011;11667;51.706;4.856;2023-07-13T14:33:25;3.55;;;1.42;;
23001;SDS011;11667;51.706;4.856;2023-07-13T14:35:56;2.20;;;1.17;;
23001;SDS011;11667;51.706;4.856;2023-07-13T14:38:26;2.25;;;1.30;;
23001;SDS011;11667;51.706;4.856;2023-07-13T14:40:56;3.95;;;1.12;;
23001;SDS011;11667;51.706;4.856;2023-07-13T14:43:26;3.30;;;1.35;;
23001;SDS011;11667;51.706;4.856;2023-07-13T14:45:57;2.72;;;1.25;;
23001;SDS011;11667;51.706;4.856;2023-07-13T14:48:27;3.80;;;1.52;;
23001;SDS011;11667;51.706;4.856;2023-07-13T14:50:57;4.83;;;1.20;;
23001;SDS011;11667;51.706;4.856;2023-07-13T14:53:27;3.83;;;1.60;;
23001;SDS011;11667;51.706;4.856;2023-07-13T14:55:56;3.75;;;1.77;;
23001;SDS011;11667;51.706;4.856;2023-07-13T14:58:26;5.62;;;1.75;;
23001;SDS011;11667;51.706;4.856;2023-07-13T15:00:57;3.60;;;1.57;;
23001;SDS011;11667;51.706;4.856;2023-07-13T15:03:26;2.60;;;1.30;;
23001;SDS011;11667;51.706;4.856;2023-07-13T15:05:56;3.27;;;1.55;;
23001;SDS011;11667;51.706;4.856;2023-07-13T15:08:25;2.72;;;1.22;;
23001;SDS011;11667;51.706;4.856;2023-07-13T15:10:54;3.15;;;1.50;;
23001;SDS011;11667;51.706;4.856;2023-07-13T15:13:26;3.40;;;1.57;;
23001;SDS011;11667;51.706;4.856;2023-07-13T15:15:56;3.47;;;1.32;;
23001;SDS011;11667;51.706;4.856;2023-07-13T15:18:26;5.83;;;1.70;;
23001;SDS011;11667;51.706;4.856;2023-07-13T15:20:55;3.58;;;1.60;;
23001;SDS011;11667;51.706;4.856;2023-07-13T15:23:26;4.78;;;1.42;;
23001;SDS011;11667;51.706;4.856;2023-07-13T15:25:55;2.60;;;1.40;;
23001;SDS011;11667;51.706;4.856;2023-07-13T15:28:25;2.33;;;1.40;;
23001;SDS011;11667;51.706;4.856;2023-07-13T15:30:54;3.75;;;1.50;;
23001;SDS011;11667;51.706;4.856;2023-07-13T15:33:27;5.15;;;1.70;;
23001;SDS011;11667;51.706;4.856;2023-07-13T15:35:58;2.75;;;1.42;;
23001;SDS011;11667;51.706;4.856;2023-07-13T15:38:28;2.08;;;1.22;;
23001;SDS011;11667;51.706;4.856;2023-07-13T15:40:59;4.50;;;1.40;;
23001;SDS011;11667;51.706;4.856;2023-07-13T15:43:31;1.98;;;1.15;;
23001;SDS011;11667;51.706;4.856;2023-07-13T15:46:01;1.77;;;1.20;;
23001;SDS011;11667;51.706;4.856;2023-07-13T15:48:30;2.65;;;1.30;;
23001;SDS011;11667;51.706;4.856;2023-07-13T15:51:02;2.47;;;1.30;;
23001;SDS011;11667;51.706;4.856;2023-07-13T15:53:32;1.95;;;1.17;;
23001;SDS011;11667;51.706;4.856;2023-07-13T15:56:04;3.25;;;1.10;;
23001;SDS011;11667;51.706;4.856;2023-07-13T15:58:41;2.37;;;1.22;;
23001;SDS011;11667;51.706;4.856;2023-07-13T16:01:10;2.65;;;1.00;;
23001;SDS011;11667;51.706;4.856;2023-07-13T16:03:41;3.87;;;1.30;;
23001;SDS011;11667;51.706;4.856;2023-07-13T16:08:50;2.30;;;1.00;;
23001;SDS011;11667;51.706;4.856;2023-07-13T16:11:24;2.92;;;1.22;;